« 定点 富山空港 2020/4/5 sun | トップページ | 武漢肺炎に負けるな »

2020/04/08

定点 富山空港他 2020/4/8 wed

都市部に緊急事態宣言が発令され、武漢肺炎との闘いは、守勢に回ってきました。自己防衛に努めて、非密三原則やよ!(断密でもいいけど)

と、できるだけロンリーで行動しているのですが、知らない人でも近づいてくるのよねぇ。本日の接触者、駐車場で某氏、ドクヘリで写真撮ろうとしたおばちゃん、河原で某氏、河原で通りすがりのおっちゃん(きゃ、話しかけないで)

RJNT 072300Z VRB02KT CAVOK 12/00 Q1013

20200408_rjnt_00ja55an

ANA313 RJTT-RJNT JA55AN B737-881

20200408_rjnt_01ja55an

ようやくギアダウン

20200408_rjnt_02jintsu

櫻と神通

RJNT 080000Z 15004KT 080V220 CAVOK 14/M00 Q1012

20200408_rjnt_03ja10ym

対岸に着いたら、ドクヘリさんが頭上通過

20200408_rjnt_04ja10ym

散水が必要な場所だったので、着陸に間に合ってしまいました。

20200408_rjnt_05ja10ym

救急車待ち

20200408_rjnt_06fdp

ようやく到着。大きい公園は入り口が判りにくくて、ぐるーと回ってしまいましたね。

20200408_rjnt_07fdp

ポンプ車で再度散水中

20200408_rjnt_08ja10ym

JA10YM A109SP SAK 富山県ドクターヘリ

20200408_rjnt_09ja55an

ANA316 RJNT-RJTT JA55AN B737-881

RW20上がりで、頭上をクライムして行きました。

RJNT 080100Z VRB04KT 9999 FEW080 SCT090 BKN100 16/M01 Q1011

20200408_rjnt_10ja10ym

ドクターは救急車添乗で、ドクター回収に向かいます。

###

 

###

20200408_rjnt_11terminal

空港に寄ってみた

20200408_rjnt_12terminal

この時間まで便がありません。

20200408_rjnt_13terminal

入管事務所があるので、時折外人がチラホラ

RJNT 080200Z 01006KT 320V070 9999 FEW060 SCT090 17/01 Q1011

20200408_rjnt_14ja139t

JA139T↓ AW139 富山県警察

20200408_rjnt_15ja10ym

本日の2回目のドクヘリさん

20200408_rjnt_16ja10ym

JA10YM↑ 丁度、桜が見ごろでした。

RJNT 080300Z 01006KT 330V060 9999 FEW060 SCT090 17/05 Q1010

20200408_rjnt_17hida

道草して、東八尾 櫻とひだ

20200408_rjnt_18hida

じっくり狙いたくもありますが・・・

20200408_rjnt_19pp

櫻と発電所

20200408_rjnt_20pp

頭上を飛ぶ飛行機がいないのが寂しい。

RJNT 080400Z 36008KT 330V030 9999 FEW060 SCT090 18/05 Q1010

20200408_rjnt_21ja139t

JA139T↑ 午後も忙しい

###

 

###

20200408_rjnt_22ja119w

「つるぎ」さんが飛び立ったら「とやま」さん

20200408_rjnt_23ja119w

連日訓練が続いています。

20200408_rjnt_24ja119w

JA119W↑ AW139 富山県消防防災

この後、チョコっと追っかけ。

|

« 定点 富山空港 2020/4/5 sun | トップページ | 武漢肺炎に負けるな »

てつ」カテゴリの記事

富山空港」カテゴリの記事

場外」カテゴリの記事

警務消防」カテゴリの記事

コメント

コメントを書く



(ウェブ上には掲載しません)


コメントは記事投稿者が公開するまで表示されません。



« 定点 富山空港 2020/4/5 sun | トップページ | 武漢肺炎に負けるな »